createdAt,value
2023-05-09T00:03:59.704Z,14.46
2023-05-09T00:09:01.009Z,14.46
2023-05-09T00:14:03.118Z,14.39
2023-05-09T00:19:04.505Z,14.32
2023-05-09T00:24:05.726Z,14.25
2023-05-09T00:29:06.925Z,14.18
2023-05-09T00:34:08.127Z,14.12
2023-05-09T00:39:09.681Z,14.05
2023-05-09T00:44:10.889Z,14.00
2023-05-09T00:49:12.459Z,14.02
2023-05-09T00:54:13.758Z,14.09
2023-05-09T00:59:17.395Z,14.14
2023-05-09T01:04:18.722Z,14.14
2023-05-09T01:09:19.912Z,14.16
2023-05-09T01:14:21.158Z,14.18
2023-05-09T01:19:22.368Z,14.25
2023-05-09T01:24:23.555Z,14.33
2023-05-09T01:29:24.721Z,14.36
2023-05-09T01:34:25.941Z,14.38
2023-05-09T01:39:27.144Z,14.37
2023-05-09T01:44:28.395Z,14.39
2023-05-09T01:49:29.616Z,14.39
2023-05-09T01:54:30.873Z,14.43
2023-05-09T01:59:32.017Z,14.45
2023-05-09T02:04:33.229Z,14.46
2023-05-09T02:09:34.456Z,14.48
2023-05-09T02:14:35.722Z,14.47
2023-05-09T02:19:36.942Z,14.44
2023-05-09T02:24:38.151Z,14.44
2023-05-09T02:29:42.646Z,14.44
2023-05-09T02:34:43.876Z,14.43
2023-05-09T02:39:45.169Z,14.44
2023-05-09T02:44:46.438Z,14.45
2023-05-09T02:49:47.902Z,14.45
2023-05-09T02:54:49.120Z,14.45
2023-05-09T02:59:50.316Z,14.44
2023-05-09T03:04:51.532Z,14.44
2023-05-09T03:09:52.949Z,14.45
2023-05-09T03:14:54.169Z,14.46
2023-05-09T03:19:55.417Z,14.45
2023-05-09T03:24:56.558Z,14.47
2023-05-09T03:29:57.812Z,14.47
2023-05-09T03:34:59.097Z,14.49
2023-05-09T03:40:00.290Z,14.49
2023-05-09T03:45:01.478Z,14.52
2023-05-09T03:50:02.693Z,14.51
2023-05-09T03:55:03.866Z,14.50
2023-05-09T04:00:06.523Z,14.49
2023-05-09T04:05:07.801Z,14.51
2023-05-09T04:10:09.029Z,14.43
2023-05-09T04:15:10.978Z,14.48
2023-05-09T04:20:12.535Z,14.47
2023-05-09T04:25:14.741Z,14.48
2023-05-09T04:30:16.243Z,14.48
2023-05-09T04:35:19.682Z,14.48
2023-05-09T04:40:21.893Z,14.50
2023-05-09T04:45:23.115Z,14.49
2023-05-09T04:50:24.712Z,14.51
2023-05-09T04:55:26.213Z,14.55
2023-05-09T05:00:27.457Z,14.58
2023-05-09T05:05:28.910Z,14.60
2023-05-09T05:10:30.529Z,14.61
2023-05-09T05:15:31.747Z,14.63
2023-05-09T05:20:32.974Z,14.74
2023-05-09T05:25:34.333Z,14.82
2023-05-09T05:30:35.521Z,14.93
2023-05-09T05:35:36.685Z,15.06
2023-05-09T05:40:37.944Z,15.23
2023-05-09T05:45:39.136Z,15.33
2023-05-09T05:50:40.337Z,15.42
2023-05-09T05:55:41.497Z,15.58
2023-05-09T06:00:42.628Z,15.78
2023-05-09T06:05:44.168Z,16.02
2023-05-09T06:10:45.409Z,16.23
2023-05-09T06:15:46.653Z,16.43
2023-05-09T06:20:47.827Z,16.53
2023-05-09T06:25:49.270Z,16.54
2023-05-09T06:30:50.531Z,16.64
2023-05-09T06:35:51.687Z,16.78
2023-05-09T06:40:52.897Z,16.87
2023-05-09T06:45:54.121Z,16.97
2023-05-09T06:50:55.398Z,17.06
2023-05-09T06:55:56.611Z,17.14
2023-05-09T07:00:57.941Z,17.33
2023-05-09T07:05:59.838Z,17.54
2023-05-09T07:11:01.078Z,17.72
2023-05-09T07:16:02.491Z,17.87
2023-05-09T07:21:03.741Z,18.01
2023-05-09T07:26:05.021Z,18.28
2023-05-09T07:31:06.368Z,18.45
2023-05-09T07:36:07.601Z,18.56
2023-05-09T07:41:08.814Z,18.55
2023-05-09T07:46:10.052Z,18.51
2023-05-09T07:51:11.257Z,18.53
2023-05-09T07:56:13.402Z,18.82
2023-05-09T08:01:14.562Z,18.91
2023-05-09T08:06:15.844Z,19.02
2023-05-09T08:11:17.009Z,18.98
2023-05-09T08:16:18.286Z,18.86
2023-05-09T08:21:22.088Z,18.96
2023-05-09T08:26:23.652Z,19.25
2023-05-09T08:31:26.927Z,19.53
2023-05-09T08:36:28.102Z,19.81
2023-05-09T08:41:29.404Z,20.15
2023-05-09T08:46:30.793Z,20.24
2023-05-09T08:51:32.242Z,20.35
2023-05-09T08:56:33.459Z,20.76
2023-05-09T09:01:37.432Z,20.95
2023-05-09T09:06:38.973Z,20.88
2023-05-09T09:11:40.393Z,21.22
2023-05-09T09:16:41.774Z,21.49
2023-05-09T09:21:43.629Z,21.81
2023-05-09T09:26:44.786Z,22.10
2023-05-09T09:31:46.127Z,22.45
2023-05-09T09:36:48.469Z,22.61
2023-05-09T09:41:49.786Z,22.14
2023-05-09T09:46:51.214Z,22.05
2023-05-09T09:51:52.414Z,22.67
2023-05-09T09:56:54.603Z,22.70
2023-05-09T10:01:55.967Z,23.43
2023-05-09T10:06:57.287Z,23.28
2023-05-09T10:11:58.430Z,23.04
2023-05-09T10:16:59.729Z,23.42
2023-05-09T10:22:00.997Z,24.40
2023-05-09T10:27:04.090Z,24.05
2023-05-09T10:32:06.738Z,23.85
2023-05-09T10:37:07.880Z,23.15
2023-05-09T10:42:09.151Z,22.68
2023-05-09T10:47:13.054Z,22.21
2023-05-09T10:52:14.223Z,21.99
2023-05-09T10:57:15.424Z,22.25
2023-05-09T11:02:16.580Z,22.64
2023-05-09T11:07:17.765Z,22.75
2023-05-09T11:12:18.920Z,22.93
2023-05-09T11:17:20.092Z,23.13
2023-05-09T11:22:21.376Z,23.23
2023-05-09T11:27:22.529Z,23.10
2023-05-09T11:32:23.739Z,23.25
2023-05-09T11:37:25.043Z,24.59
2023-05-09T11:42:26.486Z,25.06
2023-05-09T11:47:29.446Z,24.97
2023-05-09T11:52:31.891Z,25.08
2023-05-09T11:57:33.113Z,24.35
2023-05-09T12:02:34.946Z,23.99
2023-05-09T12:07:36.553Z,23.58
2023-05-09T12:12:37.846Z,23.52
2023-05-09T12:17:39.020Z,23.58
2023-05-09T12:22:40.237Z,23.90
2023-05-09T12:27:41.505Z,23.84
2023-05-09T12:32:43.579Z,23.32
2023-05-09T12:37:44.891Z,22.89
2023-05-09T12:42:46.595Z,23.05
2023-05-09T12:47:48.397Z,23.62
2023-05-09T12:53:01.849Z,23.63
2023-05-09T12:58:04.297Z,23.23
2023-05-09T13:03:05.965Z,22.94
2023-05-09T13:08:07.196Z,22.88
2023-05-09T13:13:09.760Z,23.13
2023-05-09T13:18:11.104Z,23.13
2023-05-09T13:23:12.294Z,22.92
2023-05-09T13:28:13.543Z,22.86
2023-05-09T13:33:25.054Z,22.92
2023-05-09T13:38:30.713Z,22.97
2023-05-09T13:43:31.888Z,22.96
2023-05-09T13:48:33.094Z,22.85
2023-05-09T13:53:34.706Z,22.71
2023-05-09T13:58:36.859Z,22.53
2023-05-09T14:03:38.408Z,22.44
2023-05-09T14:08:39.751Z,22.20
2023-05-09T14:13:40.980Z,22.13
2023-05-09T14:18:42.356Z,22.19
2023-05-09T14:23:43.531Z,22.06
2023-05-09T14:28:44.805Z,21.95
2023-05-09T14:33:46.037Z,21.43
2023-05-09T14:38:47.216Z,21.30
2023-05-09T14:43:48.977Z,20.32
2023-05-09T14:48:51.350Z,19.41
2023-05-09T14:53:53.329Z,18.65
2023-05-09T14:58:54.520Z,18.25
2023-05-09T15:03:55.755Z,17.94
2023-05-09T15:08:56.939Z,17.82
2023-05-09T15:13:58.256Z,17.81
2023-05-09T15:18:59.702Z,17.80
2023-05-09T15:24:00.978Z,17.61
2023-05-09T15:29:02.453Z,17.63
2023-05-09T15:34:03.777Z,17.64
2023-05-09T15:39:05.088Z,17.72
2023-05-09T15:44:07.235Z,17.62
2023-05-09T15:49:08.406Z,17.57
2023-05-09T15:54:09.593Z,17.61
2023-05-09T15:59:10.862Z,17.54
2023-05-09T16:04:13.813Z,17.61
2023-05-09T16:09:15.335Z,17.61
2023-05-09T16:14:16.595Z,17.55
2023-05-09T16:19:17.856Z,17.52
2023-05-09T16:24:19.090Z,17.45
2023-05-09T16:29:20.378Z,17.46
2023-05-09T16:34:21.626Z,17.46
2023-05-09T16:39:23.784Z,17.44
2023-05-09T16:44:24.990Z,17.49
2023-05-09T16:49:26.134Z,17.37
2023-05-09T16:54:27.498Z,17.32
2023-05-09T16:59:28.694Z,17.27
2023-05-09T17:04:29.952Z,17.16
2023-05-09T17:09:31.139Z,17.20
2023-05-09T17:14:32.391Z,17.19
2023-05-09T17:19:34.618Z,17.17
2023-05-09T17:24:36.012Z,17.14
2023-05-09T17:29:37.231Z,17.06
2023-05-09T17:34:38.946Z,16.95
2023-05-09T17:39:42.086Z,16.96
2023-05-09T17:44:44.395Z,16.94
2023-05-09T17:49:45.888Z,16.87
2023-05-09T17:54:48.181Z,16.86
2023-05-09T17:59:49.653Z,16.81
2023-05-09T18:04:50.840Z,16.77
2023-05-09T18:09:52.170Z,16.71
2023-05-09T18:14:53.530Z,16.67
2023-05-09T18:19:54.712Z,16.60
2023-05-09T18:24:56.035Z,16.51
2023-05-09T18:29:57.187Z,16.37
2023-05-09T18:34:58.361Z,15.85
2023-05-09T18:39:59.522Z,15.64
2023-05-09T18:45:00.995Z,15.41
2023-05-09T18:50:02.812Z,15.37
2023-05-09T18:55:05.763Z,15.12
2023-05-09T19:00:07.084Z,15.05
2023-05-09T19:05:08.485Z,15.00
2023-05-09T19:10:09.694Z,15.11
2023-05-09T19:15:11.149Z,15.10
2023-05-09T19:20:12.514Z,15.05
2023-05-09T19:25:13.747Z,14.94
2023-05-09T19:30:15.420Z,14.79
2023-05-09T19:35:16.916Z,14.73
2023-05-09T19:40:18.488Z,14.05
2023-05-09T19:45:19.781Z,13.72
2023-05-09T19:50:20.975Z,13.52
2023-05-09T19:55:22.176Z,13.64
2023-05-09T20:00:23.437Z,13.73
2023-05-09T20:05:24.718Z,13.58
2023-05-09T20:10:26.289Z,13.41
2023-05-09T20:15:27.812Z,13.37
2023-05-09T20:20:29.144Z,13.32
2023-05-09T20:25:30.352Z,13.28
2023-05-09T20:30:31.496Z,13.32
2023-05-09T20:35:32.747Z,13.20
2023-05-09T20:40:33.923Z,13.17
2023-05-09T20:45:37.405Z,13.01
2023-05-09T20:50:38.639Z,13.00
2023-05-09T20:55:39.802Z,12.96
2023-05-09T21:00:41.271Z,13.05
2023-05-09T21:05:42.592Z,13.09
2023-05-09T21:10:43.729Z,13.08
2023-05-09T21:15:46.673Z,13.00
2023-05-09T21:20:47.834Z,13.04
2023-05-09T21:25:49.049Z,13.02
2023-05-09T21:30:50.772Z,12.96
2023-05-09T21:35:52.004Z,12.89
2023-05-09T21:40:53.297Z,12.83
2023-05-09T21:45:54.556Z,12.84
2023-05-09T21:50:55.850Z,12.75
2023-05-09T21:55:57.117Z,12.72
2023-05-09T22:00:58.333Z,12.72
2023-05-09T22:05:59.502Z,12.66
2023-05-09T22:11:00.732Z,12.70
2023-05-09T22:16:01.975Z,12.71
2023-05-09T22:21:03.311Z,12.76
2023-05-09T22:26:04.540Z,12.79
2023-05-09T22:31:05.723Z,12.75
2023-05-09T22:36:07.311Z,12.77
2023-05-09T22:41:08.459Z,12.73
2023-05-09T22:46:10.292Z,12.72
2023-05-09T22:51:11.606Z,12.71
2023-05-09T22:56:12.993Z,12.71
2023-05-09T23:01:14.269Z,12.72
2023-05-09T23:06:15.659Z,12.71
2023-05-09T23:11:16.879Z,12.70
2023-05-09T23:16:18.280Z,12.72
2023-05-09T23:21:19.554Z,12.72
2023-05-09T23:26:21.163Z,12.74
2023-05-09T23:31:22.355Z,12.71
2023-05-09T23:36:23.664Z,12.73
2023-05-09T23:41:24.877Z,12.75
2023-05-09T23:46:26.107Z,12.73
2023-05-09T23:51:27.310Z,12.77
2023-05-09T23:56:28.655Z,12.72
